Time;durP1;ratioP1;P1;durP2;ratioP2;P2;SDS_P1;SDS_P2;PMS_P1;PMS_P2;Temp;Humidity;BMP_temperature;BMP_pressure;BME280_temperature;BME280_humidity;BME280_pressure;Samples;Min_cycle;Max_cycle;Signal;HPM_P1;HPM_P2
2024/02/21 00:00:05;;;;;;;4.13;2.58;;;17.50;91.50;;;;;;5013446;28;20018;-45
2024/02/21 00:02:31;;;;;;;5.00;2.70;;;17.50;91.50;;;;;;5013906;28;20021;-45
2024/02/21 00:04:56;;;;;;;5.45;2.40;;;17.40;91.50;;;;;;5013785;28;20080;-45
2024/02/21 00:07:22;;;;;;;6.80;2.50;;;17.50;91.50;;;;;;5013692;28;20022;-45
2024/02/21 00:09:48;;;;;;;5.50;2.60;;;17.50;91.50;;;;;;5013495;28;20036;-45
2024/02/21 00:12:14;;;;;;;5.38;2.70;;;17.50;91.50;;;;;;5013696;28;20022;-45
2024/02/21 00:14:40;;;;;;;5.40;2.63;;;17.40;91.50;;;;;;5013642;28;20132;-45
2024/02/21 00:17:06;;;;;;;5.13;2.30;;;17.40;91.50;;;;;;5013458;28;20032;-45
2024/02/21 00:19:31;;;;;;;4.82;2.63;;;17.40;91.50;;;;;;5013499;28;20100;-45
2024/02/21 00:21:57;;;;;;;5.43;2.53;;;17.40;91.50;;;;;;5013489;28;20454;-44
2024/02/21 00:24:23;;;;;;;5.88;2.30;;;17.40;91.50;;;;;;5013532;28;20033;-45
2024/02/21 00:26:48;;;;;;;5.45;2.78;;;17.40;91.50;;;;;;5013461;28;20033;-45
2024/02/21 00:29:14;;;;;;;6.03;2.47;;;17.40;91.50;;;;;;5013257;28;20034;-45
2024/02/21 00:31:39;;;;;;;4.93;2.47;;;17.40;91.50;;;;;;5013313;28;20022;-45
2024/02/21 00:34:05;;;;;;;4.60;2.20;;;17.40;91.50;;;;;;5013271;28;20030;-42
2024/02/21 00:36:31;;;;;;;4.22;2.45;;;17.40;91.50;;;;;;5013098;28;20079;-45
2024/02/21 00:38:56;;;;;;;3.40;2.10;;;17.40;91.50;;;;;;5012909;28;20018;-45
2024/02/21 00:41:22;;;;;;;4.53;2.65;;;17.40;91.50;;;;;;5013147;28;20026;-45
2024/02/21 00:43:49;;;;;;;4.22;2.15;;;17.40;91.50;;;;;;5013012;28;20030;-44
2024/02/21 00:46:15;;;;;;;4.00;2.30;;;17.30;91.50;;;;;;5012959;28;20026;-45
2024/02/21 00:48:41;;;;;;;5.57;2.45;;;17.40;91.60;;;;;;5013006;28;20092;-45
2024/02/21 00:51:06;;;;;;;3.85;2.05;;;17.40;91.60;;;;;;5012836;28;20037;-45
2024/02/21 00:53:32;;;;;;;4.53;2.30;;;17.30;91.50;;;;;;5012799;28;20026;-45
2024/02/21 00:55:58;;;;;;;4.00;2.38;;;17.30;91.50;;;;;;5012767;28;20509;-45
2024/02/21 00:58:23;;;;;;;3.58;2.28;;;17.30;91.50;;;;;;5012812;28;20018;-45
2024/02/21 01:00:49;;;;;;;4.68;2.33;;;17.30;91.50;;;;;;5012739;28;20062;-45
2024/02/21 01:03:15;;;;;;;5.30;2.65;;;17.30;91.50;;;;;;5012842;28;20037;-44
2024/02/21 01:05:40;;;;;;;4.75;2.60;;;17.30;91.50;;;;;;5012573;28;20026;-45
2024/02/21 01:08:06;;;;;;;3.80;2.20;;;17.30;91.50;;;;;;5012464;28;20026;-45
2024/02/21 01:10:32;;;;;;;3.33;2.17;;;17.30;91.50;;;;;;5010435;28;20084;-45
2024/02/21 01:12:57;;;;;;;4.18;2.22;;;17.30;91.50;;;;;;5012752;28;20479;-45
2024/02/21 01:15:24;;;;;;;3.92;2.53;;;17.30;91.50;;;;;;5012621;28;20037;-45
2024/02/21 01:17:54;;;;;;;2.80;1.90;;;17.30;91.50;;;;;;5012408;28;20425;-45
2024/02/21 01:20:20;;;;;;;4.25;2.30;;;17.30;91.50;;;;;;5012367;28;20408;-45
2024/02/21 01:22:46;;;;;;;4.53;2.38;;;17.30;91.50;;;;;;5012257;28;20480;-45
2024/02/21 01:25:11;;;;;;;5.22;2.65;;;17.30;91.50;;;;;;5012305;28;20049;-44
2024/02/21 01:27:37;;;;;;;3.80;2.00;;;17.30;91.60;;;;;;5012343;28;20033;-44
2024/02/21 01:30:03;;;;;;;3.92;2.38;;;17.30;91.60;;;;;;5012309;28;20076;-44
2024/02/21 01:32:29;;;;;;;3.40;1.90;;;17.30;91.60;;;;;;5012193;28;20443;-45
2024/02/21 01:34:54;;;;;;;3.78;2.05;;;17.30;91.60;;;;;;5012030;28;20125;-44
2024/02/21 01:37:20;;;;;;;5.25;2.20;;;17.30;91.60;;;;;;5011919;28;20037;-45
2024/02/21 01:39:45;;;;;;;3.78;2.08;;;17.30;91.60;;;;;;5012250;28;20029;-44
2024/02/21 01:42:11;;;;;;;5.00;1.90;;;17.20;91.60;;;;;;5012053;28;20116;-45
2024/02/21 01:44:38;;;;;;;3.53;1.95;;;17.20;91.60;;;;;;5012044;28;20033;-44
2024/02/21 01:47:03;;;;;;;4.72;2.30;;;17.20;91.60;;;;;;5011867;28;20018;-45
2024/02/21 01:49:29;;;;;;;4.32;2.55;;;17.20;91.60;;;;;;5011825;28;20033;-45
2024/02/21 01:51:56;;;;;;;4.13;1.80;;;17.20;91.60;;;;;;5011762;28;20088;-44
2024/02/21 01:54:21;;;;;;;4.25;2.10;;;17.20;91.60;;;;;;5011841;28;20391;-44
2024/02/21 01:56:48;;;;;;;3.85;2.00;;;17.20;91.70;;;;;;5011701;28;20512;-45
2024/02/21 01:59:16;;;;;;;3.90;2.00;;;17.20;91.70;;;;;;5011742;28;20018;-44
2024/02/21 02:01:41;;;;;;;3.75;1.88;;;17.20;91.70;;;;;;5011826;28;20037;-44
2024/02/21 02:04:08;;;;;;;4.63;2.20;;;17.20;91.70;;;;;;5011771;28;20044;-44
2024/02/21 02:06:34;;;;;;;4.15;2.17;;;17.20;91.70;;;;;;5011509;28;20030;-45
2024/02/21 02:09:00;;;;;;;4.40;2.17;;;17.20;91.70;;;;;;5011801;28;20022;-44
2024/02/21 02:11:26;;;;;;;3.55;1.80;;;17.20;91.70;;;;;;5011561;28;20377;-45
2024/02/21 02:13:51;;;;;;;3.28;1.85;;;17.20;91.70;;;;;;5011675;28;20484;-44
2024/02/21 02:16:17;;;;;;;6.05;2.20;;;17.20;91.70;;;;;;5011538;28;20392;-44
2024/02/21 02:18:42;;;;;;;2.80;1.75;;;17.20;91.70;;;;;;5011480;28;20030;-45
2024/02/21 02:21:23;;;;;;;3.05;1.50;;;17.20;91.70;;;;;;5011247;28;20061;-44
2024/02/21 02:23:49;;;;;;;6.93;2.30;;;17.20;91.70;;;;;;5011543;28;20535;-45
2024/02/21 02:26:15;;;;;;;3.38;1.80;;;17.20;91.70;;;;;;5011388;28;20041;-44
2024/02/21 02:28:40;;;;;;;4.30;1.88;;;17.20;91.70;;;;;;5011429;28;20022;-44
2024/02/21 02:31:06;;;;;;;4.20;1.88;;;17.20;91.70;;;;;;5011343;28;20578;-44
2024/02/21 02:33:31;;;;;;;2.80;1.70;;;17.20;91.70;;;;;;5011447;28;20250;-44
2024/02/21 02:35:58;;;;;;;3.10;1.80;;;17.20;91.70;;;;;;5011347;28;20036;-45
2024/02/21 02:38:24;;;;;;;3.33;1.80;;;17.10;91.70;;;;;;5011399;28;20018;-45
2024/02/21 02:40:49;;;;;;;4.45;1.45;;;17.10;91.60;;;;;;5011678;28;20555;-44
2024/02/21 02:43:15;;;;;;;3.45;1.80;;;17.20;91.70;;;;;;5011438;28;20036;-44
2024/02/21 02:45:41;;;;;;;4.10;1.88;;;17.20;91.70;;;;;;5011246;28;20092;-44
2024/02/21 02:48:07;;;;;;;2.80;1.77;;;17.10;91.60;;;;;;5011119;28;20097;-44
2024/02/21 02:50:32;;;;;;;4.32;1.65;;;17.10;91.70;;;;;;5011049;28;20077;-44
2024/02/21 02:52:58;;;;;;;3.05;1.48;;;17.10;91.80;;;;;;5011279;28;20435;-44
2024/02/21 02:55:23;;;;;;;2.53;1.65;;;17.20;91.70;;;;;;5011155;28;20033;-44
2024/02/21 02:57:49;;;;;;;2.10;1.40;;;17.10;91.70;;;;;;5011159;28;20076;-45
2024/02/21 03:00:15;;;;;;;3.00;1.80;;;17.10;91.70;;;;;;5011163;28;20022;-45
2024/02/21 03:02:42;;;;;;;3.33;1.48;;;17.10;91.70;;;;;;5011124;28;20484;-45
2024/02/21 03:05:14;;;;;;;3.70;1.75;;;17.10;91.70;;;;;;5011049;28;20041;-45
2024/02/21 03:07:40;;;;;;;3.20;1.52;;;17.10;92.10;;;;;;5011296;28;20510;-45
2024/02/21 03:10:06;;;;;;;3.25;1.42;;;17.10;91.70;;;;;;5011080;28;20037;-44
2024/02/21 03:12:32;;;;;;;4.78;2.08;;;17.10;91.70;;;;;;5011072;28;20033;-45
2024/02/21 03:14:57;;;;;;;3.85;1.50;;;17.10;91.70;;;;;;5011313;28;20054;-45
2024/02/21 03:17:24;;;;;;;2.78;1.30;;;17.20;91.80;;;;;;5010917;28;20472;-45
2024/02/21 03:19:50;;;;;;;4.18;1.70;;;17.20;91.80;;;;;;5010878;28;20129;-45
2024/02/21 03:22:16;;;;;;;2.97;1.90;;;17.20;91.80;;;;;;5010999;28;20551;-45
2024/02/21 03:24:42;;;;;;;2.53;1.63;;;17.10;91.70;;;;;;5011257;28;20029;-43
2024/02/21 03:27:08;;;;;;;2.58;1.48;;;17.10;91.70;;;;;;5010873;28;20033;-45
2024/02/21 03:29:33;;;;;;;3.13;1.77;;;17.10;91.80;;;;;;5010813;28;20022;-45
2024/02/21 03:31:59;;;;;;;3.70;1.40;;;17.10;91.70;;;;;;5010835;28;20034;-45
2024/02/21 03:34:25;;;;;;;3.20;1.40;;;17.20;91.70;;;;;;5011686;28;20022;-45
2024/02/21 03:36:50;;;;;;;3.20;1.63;;;17.10;91.70;;;;;;5014448;28;20029;-45
2024/02/21 03:39:16;;;;;;;2.72;1.58;;;17.10;91.70;;;;;;5014277;28;20112;-43
2024/02/21 03:41:42;;;;;;;2.80;1.50;;;17.10;91.70;;;;;;5014349;28;20028;-45
2024/02/21 03:44:07;;;;;;;3.72;1.58;;;17.10;91.70;;;;;;5014774;28;20372;-45
2024/02/21 03:46:33;;;;;;;4.85;1.88;;;17.10;91.70;;;;;;5014004;28;20060;-45
2024/02/21 03:49:00;;;;;;;2.38;1.42;;;17.10;91.70;;;;;;5014140;28;20072;-45
2024/02/21 03:51:26;;;;;;;4.47;1.75;;;17.10;91.80;;;;;;5014092;28;20096;-45
2024/02/21 03:53:51;;;;;;;2.72;1.42;;;17.10;91.70;;;;;;5014112;28;20504;-44
2024/02/21 03:56:17;;;;;;;2.78;1.40;;;17.10;91.80;;;;;;5014021;28;20034;-44
2024/02/21 03:58:43;;;;;;;3.25;1.50;;;17.10;91.80;;;;;;5013957;28;20045;-45
2024/02/21 04:01:08;;;;;;;2.08;1.30;;;17.10;91.80;;;;;;5013829;28;20041;-45
2024/02/21 04:03:34;;;;;;;3.92;1.50;;;17.10;91.80;;;;;;5013881;28;20507;-45
2024/02/21 04:06:00;;;;;;;3.25;1.60;;;17.10;91.80;;;;;;5013895;28;20103;-45
2024/02/21 04:08:26;;;;;;;4.53;1.67;;;17.10;91.80;;;;;;5013753;28;20400;-45
2024/02/21 04:10:51;;;;;;;3.55;1.20;;;17.00;91.80;;;;;;5013585;28;20037;-45
2024/02/21 04:13:17;;;;;;;2.97;1.40;;;17.10;91.80;;;;;;5013717;28;20017;-45
2024/02/21 04:15:43;;;;;;;3.35;1.67;;;17.10;91.80;;;;;;5013471;28;20029;-45
2024/02/21 04:18:09;;;;;;;3.17;1.40;;;17.10;91.80;;;;;;5013525;28;20022;-44
2024/02/21 04:20:35;;;;;;;2.85;1.33;;;17.10;91.80;;;;;;5013632;28;20396;-45
2024/02/21 04:23:01;;;;;;;3.10;1.20;;;17.10;91.80;;;;;;5014995;28;20025;-45
2024/02/21 04:25:26;;;;;;;3.17;1.30;;;17.00;91.80;;;;;;5017116;28;20030;-44
2024/02/21 04:27:52;;;;;;;2.85;1.48;;;17.10;91.80;;;;;;5013800;28;20050;-44
2024/02/21 04:30:18;;;;;;;3.95;1.58;;;17.10;91.80;;;;;;5013179;28;20030;-45
2024/02/21 04:32:43;;;;;;;4.88;1.60;;;17.10;91.80;;;;;;5013557;28;20084;-45
2024/02/21 04:35:09;;;;;;;2.95;1.60;;;17.10;91.80;;;;;;5013227;28;20054;-44
2024/02/21 04:37:35;;;;;;;3.58;1.60;;;17.10;91.80;;;;;;5013477;28;20476;-45
2024/02/21 04:40:01;;;;;;;3.03;1.30;;;17.00;91.80;;;;;;5013138;28;20452;-45
2024/02/21 04:42:26;;;;;;;2.97;1.35;;;17.10;91.80;;;;;;5013182;28;20519;-45
2024/02/21 04:44:52;;;;;;;2.55;1.20;;;17.10;91.80;;;;;;5012035;28;20053;-45
2024/02/21 04:47:19;;;;;;;3.10;1.25;;;17.00;91.80;;;;;;5012924;28;20026;-45
2024/02/21 04:49:45;;;;;;;2.63;1.50;;;17.10;91.80;;;;;;5012990;28;20145;-45
2024/02/21 04:52:11;;;;;;;3.25;1.40;;;17.00;91.80;;;;;;5012953;28;20026;-45
2024/02/21 04:54:37;;;;;;;2.88;1.38;;;17.00;91.80;;;;;;5012911;28;20029;-45
2024/02/21 04:57:03;;;;;;;2.97;1.35;;;17.00;91.80;;;;;;5013002;28;20452;-44
2024/02/21 04:59:29;;;;;;;1.95;1.00;;;17.00;91.80;;;;;;5012803;28;20037;-44
2024/02/21 05:01:55;;;;;;;2.78;1.58;;;17.00;91.80;;;;;;5013226;28;20084;-44
2024/02/21 05:04:20;;;;;;;2.42;1.00;;;17.00;91.80;;;;;;5012758;28;20033;-44
2024/02/21 05:06:46;;;;;;;3.58;1.27;;;17.00;91.80;;;;;;5012604;28;20112;-44
2024/02/21 05:09:12;;;;;;;2.38;1.30;;;17.00;91.80;;;;;;5012660;28;20030;-44
2024/02/21 05:11:38;;;;;;;6.20;1.63;;;17.00;91.80;;;;;;5012657;28;20030;-44
2024/02/21 05:14:04;;;;;;;2.60;1.42;;;17.00;91.80;;;;;;5012627;28;20025;-44
2024/02/21 05:16:33;;;;;;;2.70;1.17;;;17.00;91.80;;;;;;5012459;28;20065;-44
2024/02/21 05:18:58;;;;;;;3.05;1.50;;;17.00;91.80;;;;;;5012369;28;20025;-43
2024/02/21 05:21:24;;;;;;;3.05;1.20;;;17.00;91.70;;;;;;5012502;28;20034;-44
2024/02/21 05:23:50;;;;;;;3.60;1.20;;;17.00;91.70;;;;;;5012498;28;20484;-44
2024/02/21 05:26:24;;;;;;;3.20;1.42;;;17.00;91.70;;;;;;5012188;28;20065;-44
2024/02/21 05:28:50;;;;;;;3.67;1.30;;;17.00;91.70;;;;;;5012245;28;20032;-44
2024/02/21 05:31:19;;;;;;;2.20;1.25;;;17.00;91.70;;;;;;5012223;28;20021;-44
2024/02/21 05:33:45;;;;;;;2.92;1.20;;;17.00;91.70;;;;;;5012415;28;20494;-43
2024/02/21 05:36:12;;;;;;;2.53;1.30;;;17.00;91.70;;;;;;5012119;28;20030;-43
2024/02/21 05:38:38;;;;;;;2.15;1.17;;;17.00;91.70;;;;;;5012103;28;20029;-43
2024/02/21 05:41:04;;;;;;;1.95;1.05;;;17.00;91.70;;;;;;5012064;28;20101;-44
2024/02/21 05:43:29;;;;;;;6.35;1.80;;;17.00;91.70;;;;;;5012322;28;20026;-42
2024/02/21 05:45:55;;;;;;;5.93;1.67;;;17.00;90.80;;;;;;5012439;28;20022;-43
2024/02/21 05:48:22;;;;;;;4.78;1.48;;;16.90;90.40;;;;;;5012277;28;20476;-43
2024/02/21 05:50:49;;;;;;;5.60;1.67;;;16.90;90.30;;;;;;5012020;28;20029;-41
2024/02/21 05:53:15;;;;;;;4.18;1.30;;;16.90;90.30;;;;;;5027113;28;20105;-42
2024/02/21 05:55:41;;;;;;;6.07;1.70;;;16.90;90.40;;;;;;5011884;28;20109;-42
2024/02/21 05:58:07;;;;;;;4.15;1.98;;;16.90;90.50;;;;;;5011622;28;20060;-43
2024/02/21 06:00:33;;;;;;;3.05;1.42;;;16.90;90.60;;;;;;5011965;28;20022;-45
2024/02/21 06:02:59;;;;;;;5.53;1.70;;;16.90;90.70;;;;;;5012005;28;20620;-42
2024/02/21 06:05:24;;;;;;;4.63;1.40;;;16.90;90.70;;;;;;5012057;28;20049;-44
2024/02/21 06:07:50;;;;;;;4.75;1.60;;;16.90;90.70;;;;;;5011916;28;20053;-43
2024/02/21 06:10:16;;;;;;;4.72;1.80;;;16.90;90.80;;;;;;5010583;28;20543;-43
2024/02/21 06:12:42;;;;;;;3.53;1.65;;;16.90;90.80;;;;;;5012218;28;20437;-43
2024/02/21 06:15:08;;;;;;;6.63;1.88;;;16.90;91.10;;;;;;5011643;28;20145;-43
2024/02/21 06:17:34;;;;;;;6.75;1.73;;;16.90;90.80;;;;;;5011787;28;20104;-42
2024/02/21 06:20:00;;;;;;;4.10;1.17;;;16.90;90.90;;;;;;5011792;28;20032;-44
2024/02/21 06:22:25;;;;;;;3.78;1.58;;;16.90;90.90;;;;;;5011859;28;20554;-44
2024/02/21 06:24:51;;;;;;;4.43;1.58;;;16.90;90.90;;;;;;5011528;28;20034;-43
2024/02/21 06:27:17;;;;;;;4.78;1.50;;;16.90;90.90;;;;;;5012060;28;20048;-43
2024/02/21 06:29:43;;;;;;;4.82;1.42;;;16.90;90.90;;;;;;5010286;28;20400;-44
2024/02/21 06:32:09;;;;;;;3.88;1.35;;;16.90;90.90;;;;;;5012216;28;20109;-43
2024/02/21 06:34:35;;;;;;;4.28;1.70;;;16.90;90.90;;;;;;5011777;28;20036;-44
2024/02/21 06:37:00;;;;;;;3.63;1.13;;;16.90;90.90;;;;;;5011853;28;20029;-43
2024/02/21 06:39:28;;;;;;;3.88;1.40;;;16.90;90.90;;;;;;5010332;28;20400;-44
2024/02/21 06:41:54;;;;;;;5.05;1.60;;;16.90;91.00;;;;;;5010540;28;20026;-43
2024/02/21 06:44:21;;;;;;;5.55;1.60;;;16.90;91.00;;;;;;5011976;28;20030;-42
2024/02/21 06:46:46;;;;;;;5.15;1.83;;;16.90;91.00;;;;;;5011614;28;20034;-43
2024/02/21 06:49:15;;;;;;;3.20;1.30;;;16.90;91.00;;;;;;5011702;28;20369;-44
2024/02/21 06:51:45;;;;;;;3.13;1.45;;;16.90;91.00;;;;;;5011628;28;20088;-42
2024/02/21 06:54:10;;;;;;;5.07;1.63;;;16.90;91.10;;;;;;5011709;28;20084;-44
2024/02/21 06:56:37;;;;;;;3.17;1.50;;;16.90;91.10;;;;;;5011392;28;20026;-45
2024/02/21 06:59:03;;;;;;;2.92;1.33;;;16.90;91.10;;;;;;5011499;28;20033;-45
2024/02/21 07:01:29;;;;;;;3.13;1.50;;;16.90;91.10;;;;;;5011933;28;20029;-44
2024/02/21 07:03:56;;;;;;;2.33;1.38;;;16.90;91.10;;;;;;5011580;28;20041;-44
2024/02/21 07:06:21;;;;;;;3.13;1.48;;;16.90;91.10;;;;;;5011456;28;20078;-44
2024/02/21 07:08:47;;;;;;;3.90;1.33;;;16.80;91.10;;;;;;5013161;28;20030;-44
2024/02/21 07:11:13;;;;;;;4.18;1.63;;;16.90;91.20;;;;;;5015172;28;20364;-44
2024/02/21 07:13:38;;;;;;;3.47;1.30;;;16.90;91.20;;;;;;5015216;28;20388;-43
2024/02/21 07:16:04;;;;;;;4.40;1.58;;;16.90;91.20;;;;;;5013897;28;20102;-44
2024/02/21 07:18:30;;;;;;;2.47;1.30;;;16.80;91.20;;;;;;5015386;28;20467;-43
2024/02/21 07:20:56;;;;;;;4.72;1.30;;;16.90;91.20;;;;;;5015405;28;20046;-44
2024/02/21 07:23:22;;;;;;;4.00;1.20;;;16.90;91.20;;;;;;5016085;28;20120;-42
2024/02/21 07:25:48;;;;;;;5.13;2.40;;;16.90;91.20;;;;;;5015081;28;20045;-44
2024/02/21 07:28:15;;;;;;;7.68;3.10;;;16.90;90.50;;;;;;5013474;28;20045;-45
2024/02/21 07:30:40;;;;;;;12.38;3.42;;;16.80;90.00;;;;;;5013486;28;20049;-44
2024/02/21 07:33:07;;;;;;;8.25;2.80;;;16.80;89.90;;;;;;5015338;28;20360;-44
2024/02/21 07:35:32;;;;;;;6.30;2.83;;;16.80;90.00;;;;;;5014665;28;20157;-44
2024/02/21 07:37:58;;;;;;;6.25;2.55;;;16.70;90.00;;;;;;5015365;28;20081;-45
2024/02/21 07:40:24;;;;;;;5.32;2.33;;;16.70;90.00;;;;;;5014872;28;20038;-45
2024/02/21 07:42:50;;;;;;;6.25;2.80;;;16.70;90.10;;;;;;5014602;28;20022;-45
2024/02/21 07:45:15;;;;;;;5.28;2.55;;;16.70;90.20;;;;;;5015074;28;20024;-45
2024/02/21 07:47:41;;;;;;;6.25;2.67;;;16.70;90.20;;;;;;5014689;28;20024;-44
2024/02/21 07:50:07;;;;;;;5.93;2.45;;;16.70;90.30;;;;;;5014292;28;20102;-45
2024/02/21 07:52:33;;;;;;;5.20;2.50;;;16.80;90.30;;;;;;5015218;28;20084;-45
2024/02/21 07:54:58;;;;;;;5.07;2.40;;;16.80;90.40;;;;;;5014155;28;20029;-44
2024/02/21 07:57:25;;;;;;;6.38;2.20;;;16.80;90.40;;;;;;5014051;28;20028;-45
2024/02/21 07:59:50;;;;;;;6.78;2.50;;;16.80;90.40;;;;;;5015126;28;20056;-44
2024/02/21 08:02:16;;;;;;;4.22;2.15;;;16.80;90.50;;;;;;5013972;28;20038;-45
2024/02/21 08:04:43;;;;;;;4.93;2.17;;;16.90;90.50;;;;;;5013787;28;20038;-45
2024/02/21 08:07:09;;;;;;;4.43;2.33;;;16.90;90.50;;;;;;5013660;28;20034;-45
2024/02/21 08:09:36;;;;;;;5.88;1.92;;;16.90;90.60;;;;;;5013756;28;20030;-45
2024/02/21 08:12:02;;;;;;;4.47;2.53;;;16.90;90.60;;;;;;5013617;28;20038;-45
2024/02/21 08:14:28;;;;;;;3.70;1.90;;;16.90;90.60;;;;;;5013717;28;20187;-45
2024/02/21 08:16:55;;;;;;;3.35;1.98;;;16.90;90.60;;;;;;5013499;28;20022;-45
2024/02/21 08:19:20;;;;;;;3.67;1.90;;;16.90;90.60;;;;;;5013187;28;20108;-45
2024/02/21 08:21:49;;;;;;;3.63;1.95;;;16.90;90.60;;;;;;5013895;28;20161;-44
2024/02/21 08:24:15;;;;;;;3.65;1.88;;;17.00;90.60;;;;;;5013730;28;20152;-45
2024/02/21 08:26:47;;;;;;;4.28;2.03;;;17.00;90.70;;;;;;5013175;28;20069;-45
2024/02/21 08:29:12;;;;;;;4.95;2.17;;;17.00;90.70;;;;;;5013368;28;20036;-45
2024/02/21 08:31:38;;;;;;;5.70;2.17;;;17.00;90.70;;;;;;5013282;28;20025;-45
2024/02/21 08:34:04;;;;;;;3.22;1.77;;;17.00;90.70;;;;;;5013303;28;20026;-45
2024/02/21 08:36:30;;;;;;;3.03;1.85;;;17.00;90.70;;;;;;5013183;28;20051;-44
2024/02/21 08:38:56;;;;;;;2.95;1.70;;;17.10;90.70;;;;;;5013099;28;20018;-44
2024/02/21 08:41:23;;;;;;;4.07;2.10;;;17.10;90.70;;;;;;5013183;28;20026;-44
2024/02/21 08:43:51;;;;;;;3.78;1.80;;;17.10;90.70;;;;;;5013165;28;20030;-45
2024/02/21 08:46:17;;;;;;;4.22;1.63;;;17.20;90.70;;;;;;5013099;28;20036;-44
2024/02/21 08:48:45;;;;;;;4.35;2.00;;;17.20;90.70;;;;;;5013098;28;20497;-45
2024/02/21 08:51:11;;;;;;;3.60;1.65;;;17.20;90.70;;;;;;5013332;28;20079;-45
2024/02/21 08:53:38;;;;;;;3.60;1.70;;;17.20;90.70;;;;;;5013539;28;20112;-45
2024/02/21 08:56:04;;;;;;;4.35;1.88;;;17.20;91.00;;;;;;5014707;28;20072;-44
2024/02/21 08:58:29;;;;;;;4.13;1.65;;;17.20;90.60;;;;;;5014040;28;20488;-45
2024/02/21 09:00:56;;;;;;;2.50;1.60;;;17.30;90.60;;;;;;5012677;28;20067;-45
2024/02/21 09:03:22;;;;;;;2.72;1.45;;;17.30;90.60;;;;;;5013051;28;20376;-44
2024/02/21 09:05:48;;;;;;;4.97;1.70;;;17.30;90.70;;;;;;5012672;28;20033;-45
2024/02/21 09:08:14;;;;;;;3.15;1.60;;;17.20;90.70;;;;;;5012639;28;20072;-45
2024/02/21 09:10:40;;;;;;;5.90;1.52;;;17.20;90.70;;;;;;5012434;28;20160;-45
2024/02/21 09:13:07;;;;;;;2.65;1.42;;;17.20;90.70;;;;;;5012586;28;20076;-45
2024/02/21 09:15:33;;;;;;;3.25;1.75;;;17.20;90.70;;;;;;5012414;28;20544;-45
2024/02/21 09:17:58;;;;;;;3.70;1.52;;;17.20;90.70;;;;;;5011187;28;20164;-45
2024/02/21 09:20:24;;;;;;;2.67;1.40;;;17.30;90.70;;;;;;5012392;28;20396;-45
2024/02/21 09:22:50;;;;;;;3.53;1.60;;;17.30;90.80;;;;;;5012501;28;20108;-45
2024/02/21 09:25:16;;;;;;;3.28;1.50;;;17.30;90.80;;;;;;5012242;28;20436;-45
2024/02/21 09:27:43;;;;;;;4.05;1.65;;;17.30;90.70;;;;;;5012274;28;20030;-45
2024/02/21 09:30:09;;;;;;;3.30;1.42;;;17.30;90.70;;;;;;5012160;28;20030;-45
2024/02/21 09:32:36;;;;;;;2.35;1.23;;;17.30;90.70;;;;;;5011617;28;20373;-45
2024/02/21 09:35:02;;;;;;;2.30;1.30;;;17.30;90.80;;;;;;5012115;28;20101;-45
2024/02/21 09:37:27;;;;;;;3.33;1.30;;;17.30;90.70;;;;;;5012152;28;20057;-45
2024/02/21 09:39:53;;;;;;;3.42;1.73;;;17.40;90.80;;;;;;5027164;28;20053;-45
2024/02/21 09:42:21;;;;;;;2.55;1.25;;;17.40;90.70;;;;;;5012149;28;20105;-44
2024/02/21 09:44:48;;;;;;;2.72;1.33;;;17.50;90.70;;;;;;5012187;28;20435;-45
2024/02/21 09:47:22;;;;;;;2.42;1.55;;;17.50;90.60;;;;;;5013088;28;20092;-45
2024/02/21 09:49:48;;;;;;;2.80;1.80;;;17.60;90.60;;;;;;5012286;28;20045;-45
2024/02/21 09:52:15;;;;;;;2.25;1.40;;;17.60;90.50;;;;;;5011944;28;20033;-45
2024/02/21 09:54:44;;;;;;;2.60;1.50;;;17.70;90.50;;;;;;5027114;28;20480;-45
2024/02/21 09:57:10;;;;;;;4.22;1.75;;;17.70;90.40;;;;;;5011834;28;20022;-45
2024/02/21 09:59:37;;;;;;;3.97;1.73;;;17.80;90.40;;;;;;5011841;28;20033;-45
2024/02/21 10:02:03;;;;;;;3.00;1.77;;;17.90;90.40;;;;;;5011898;28;20104;-44
2024/02/21 10:04:29;;;;;;;3.70;1.80;;;17.90;90.30;;;;;;5010473;28;20488;-45
2024/02/21 10:06:55;;;;;;;3.55;1.83;;;18.00;90.30;;;;;;5011734;28;20037;-46
2024/02/21 10:09:28;;;;;;;2.67;1.25;;;18.00;90.30;;;;;;5012180;28;20030;-44
2024/02/21 10:11:55;;;;;;;3.25;1.60;;;18.10;90.20;;;;;;5011598;28;20084;-45
2024/02/21 10:14:20;;;;;;;2.30;1.40;;;18.10;90.20;;;;;;5011671;28;20034;-45
2024/02/21 10:16:48;;;;;;;2.80;1.60;;;18.20;90.20;;;;;;5011734;28;20076;-45
2024/02/21 10:19:21;;;;;;;2.20;1.30;;;18.20;90.10;;;;;;5011740;28;20049;-46
2024/02/21 10:22:07;;;;;;;2.60;1.63;;;18.30;90.10;;;;;;5011678;28;20033;-45
2024/02/21 10:24:34;;;;;;;2.55;1.63;;;18.30;90.00;;;;;;5011431;28;20495;-46
2024/02/21 10:27:03;;;;;;;2.72;1.30;;;18.30;90.00;;;;;;5011563;28;20041;-45
2024/02/21 10:29:32;;;;;;;3.10;1.42;;;18.40;90.00;;;;;;5011478;28;20160;-41
2024/02/21 10:32:12;;;;;;;3.00;1.48;;;18.40;89.90;;;;;;5011519;28;20029;-45
2024/02/21 10:34:39;;;;;;;2.47;1.38;;;18.50;89.90;;;;;;5012145;28;20030;-46
2024/02/21 10:37:07;;;;;;;3.50;1.50;;;18.50;89.80;;;;;;5012009;28;20079;-46
2024/02/21 10:39:34;;;;;;;3.22;1.55;;;18.50;89.70;;;;;;5012052;28;20037;-46
2024/02/21 10:42:04;;;;;;;2.58;1.30;;;18.50;90.10;;;;;;5012620;28;20287;-44
2024/02/21 10:44:32;;;;;;;3.47;1.50;;;18.60;89.50;;;;;;5015830;28;20037;-43
2024/02/21 10:46:58;;;;;;;2.20;1.23;;;18.70;89.40;;;;;;5014231;28;20036;-45
2024/02/21 10:49:25;;;;;;;2.40;1.30;;;18.70;89.30;;;;;;5015528;28;20018;-45
2024/02/21 10:51:56;;;;;;;4.30;1.40;;;18.70;89.20;;;;;;5014029;28;20026;-45
2024/02/21 10:54:32;;;;;;;2.20;1.30;;;18.80;89.20;;;;;;5013940;28;20084;-46
2024/02/21 10:57:00;;;;;;;3.10;1.25;;;18.80;89.10;;;;;;5015196;28;20049;-45
2024/02/21 10:59:29;;;;;;;3.05;1.40;;;18.90;89.00;;;;;;5015337;28;20022;-46
2024/02/21 11:01:54;;;;;;;3.15;1.30;;;18.90;88.90;;;;;;5015194;28;20546;-44
2024/02/21 11:04:21;;;;;;;2.03;1.20;;;18.90;88.80;;;;;;5015012;28;20030;-45
2024/02/21 11:06:47;;;;;;;2.05;1.17;;;18.90;88.70;;;;;;5014897;28;20040;-43
2024/02/21 11:09:12;;;;;;;2.17;1.45;;;18.90;88.70;;;;;;5014821;28;20030;-45
2024/02/21 11:11:40;;;;;;;2.47;1.30;;;19.00;88.60;;;;;;5014863;28;20431;-45
2024/02/21 11:14:09;;;;;;;2.10;1.20;;;19.00;88.60;;;;;;5014895;28;20030;-45
2024/02/21 11:16:39;;;;;;;2.15;1.10;;;19.00;88.50;;;;;;5015182;28;20053;-43
2024/02/21 11:19:10;;;;;;;1.75;1.20;;;19.00;88.40;;;;;;5014668;28;20088;-46
2024/02/21 11:21:37;;;;;;;2.90;1.35;;;19.00;88.40;;;;;;5014804;28;20034;-45
2024/02/21 11:24:04;;;;;;;2.50;1.30;;;19.00;88.40;;;;;;5014664;28;20068;-43
2024/02/21 11:26:31;;;;;;;1.75;1.23;;;19.00;88.40;;;;;;5014455;28;20396;-45
2024/02/21 11:29:01;;;;;;;3.70;1.30;;;19.00;88.30;;;;;;5014414;28;20041;-44
2024/02/21 11:31:27;;;;;;;2.10;1.10;;;19.00;88.40;;;;;;5014638;28;20034;-43
2024/02/21 11:33:53;;;;;;;1.63;0.98;;;19.00;88.40;;;;;;5014526;28;20045;-45
2024/02/21 11:36:26;;;;;;;2.53;1.30;;;19.00;88.30;;;;;;5014345;28;20013;-43
2024/02/21 11:38:55;;;;;;;3.08;1.30;;;19.00;88.30;;;;;;5014322;28;20018;-45
2024/02/21 11:41:21;;;;;;;2.25;1.17;;;19.00;88.30;;;;;;5014374;28;20026;-43
2024/02/21 11:43:48;;;;;;;2.05;1.00;;;19.00;88.30;;;;;;5014223;28;20091;-45
2024/02/21 11:46:14;;;;;;;3.30;1.27;;;19.00;88.30;;;;;;5014282;28;20033;-45
2024/02/21 11:48:44;;;;;;;2.80;1.30;;;19.00;88.20;;;;;;5014937;28;20037;-45
2024/02/21 11:51:10;;;;;;;1.45;0.90;;;19.10;88.30;;;;;;5014056;28;20030;-45
2024/02/21 11:53:35;;;;;;;2.17;1.17;;;19.10;88.20;;;;;;5014035;28;20040;-45
2024/02/21 11:56:01;;;;;;;2.33;0.95;;;19.10;88.70;;;;;;5014023;28;20364;-46
2024/02/21 11:58:26;;;;;;;3.45;1.30;;;19.20;88.00;;;;;;5014142;28;20029;-45
2024/02/21 12:00:52;;;;;;;2.05;0.90;;;19.20;87.80;;;;;;5014079;28;20033;-45
2024/02/21 12:03:18;;;;;;;2.35;1.15;;;19.30;87.80;;;;;;5014023;28;20520;-45
2024/02/21 12:05:46;;;;;;;1.85;1.08;;;19.20;87.70;;;;;;5013842;28;20026;-45
2024/02/21 12:08:12;;;;;;;2.05;1.05;;;19.20;87.60;;;;;;5013760;28;20097;-45
2024/02/21 12:10:37;;;;;;;2.17;1.00;;;19.30;87.70;;;;;;5013561;28;20109;-46
2024/02/21 12:13:09;;;;;;;2.92;1.00;;;19.30;87.60;;;;;;5013858;28;20440;-46
2024/02/21 12:15:34;;;;;;;1.08;0.75;;;19.30;87.50;;;;;;5013780;28;20030;-45
2024/02/21 12:18:01;;;;;;;1.55;0.80;;;19.30;87.50;;;;;;5013741;28;20022;-46
2024/02/21 12:20:26;;;;;;;1.80;1.10;;;19.40;87.60;;;;;;5013679;28;20018;-45
2024/02/21 12:22:53;;;;;;;1.50;0.88;;;19.30;87.40;;;;;;5013631;28;20036;-44
2024/02/21 12:25:26;;;;;;;1.20;0.82;;;19.30;87.40;;;;;;5013348;28;20038;-45
2024/02/21 12:27:52;;;;;;;4.85;1.58;;;19.30;87.40;;;;;;5013522;28;20076;-45
2024/02/21 12:30:19;;;;;;;2.80;0.95;;;19.40;87.30;;;;;;5013411;28;20029;-46
2024/02/21 12:32:45;;;;;;;2.25;1.02;;;19.40;86.30;;;;;;5013399;28;20054;-46
2024/02/21 12:35:11;;;;;;;2.40;1.00;;;19.30;85.80;;;;;;5013729;28;20033;-45
2024/02/21 12:37:37;;;;;;;3.67;1.13;;;19.30;85.50;;;;;;5012051;28;20029;-45
2024/02/21 12:40:08;;;;;;;2.30;0.98;;;19.30;85.40;;;;;;5013215;28;20480;-45
2024/02/21 12:42:34;;;;;;;2.28;1.10;;;19.30;85.40;;;;;;5013292;28;20025;-45